sensor_id;sensor_type;location;lat;lon;timestamp;P1;durP1;ratioP1;P2;durP2;ratioP2
79047;SDS011;68680;50.764;6.120;2023-12-28T00:02:14;3.05;;;2.50;;
79047;SDS011;68680;50.764;6.120;2023-12-28T00:04:40;2.97;;;2.53;;
79047;SDS011;68680;50.764;6.120;2023-12-28T00:07:06;4.40;;;2.90;;
79047;SDS011;68680;50.764;6.120;2023-12-28T00:09:31;3.83;;;2.67;;
79047;SDS011;68680;50.764;6.120;2023-12-28T00:11:58;4.28;;;3.10;;
79047;SDS011;68680;50.764;6.120;2023-12-28T00:14:24;4.15;;;2.30;;
79047;SDS011;68680;50.764;6.120;2023-12-28T00:16:50;6.40;;;2.95;;
79047;SDS011;68680;50.764;6.120;2023-12-28T00:19:15;4.60;;;2.78;;
79047;SDS011;68680;50.764;6.120;2023-12-28T00:21:41;8.68;;;3.45;;
79047;SDS011;68680;50.764;6.120;2023-12-28T00:24:06;3.00;;;2.70;;
79047;SDS011;68680;50.764;6.120;2023-12-28T00:26:32;5.55;;;2.70;;
79047;SDS011;68680;50.764;6.120;2023-12-28T00:28:59;4.63;;;3.10;;
79047;SDS011;68680;50.764;6.120;2023-12-28T00:31:24;3.63;;;2.90;;
79047;SDS011;68680;50.764;6.120;2023-12-28T00:33:50;4.45;;;2.53;;
79047;SDS011;68680;50.764;6.120;2023-12-28T00:36:16;4.70;;;3.25;;
79047;SDS011;68680;50.764;6.120;2023-12-28T00:38:41;5.10;;;3.10;;
79047;SDS011;68680;50.764;6.120;2023-12-28T00:41:07;9.25;;;3.30;;
79047;SDS011;68680;50.764;6.120;2023-12-28T00:43:32;4.03;;;2.47;;
79047;SDS011;68680;50.764;6.120;2023-12-28T00:46:00;7.90;;;2.92;;
79047;SDS011;68680;50.764;6.120;2023-12-28T00:48:25;5.82;;;2.90;;
79047;SDS011;68680;50.764;6.120;2023-12-28T00:50:51;5.75;;;2.50;;
79047;SDS011;68680;50.764;6.120;2023-12-28T00:53:17;5.40;;;2.47;;
79047;SDS011;68680;50.764;6.120;2023-12-28T00:55:43;3.72;;;2.50;;
79047;SDS011;68680;50.764;6.120;2023-12-28T00:58:08;4.28;;;2.78;;
79047;SDS011;68680;50.764;6.120;2023-12-28T01:00:34;2.75;;;2.47;;
79047;SDS011;68680;50.764;6.120;2023-12-28T01:03:01;3.88;;;2.90;;
79047;SDS011;68680;50.764;6.120;2023-12-28T01:05:27;4.43;;;2.70;;
79047;SDS011;68680;50.764;6.120;2023-12-28T01:07:52;4.07;;;2.78;;
79047;SDS011;68680;50.764;6.120;2023-12-28T01:10:18;5.15;;;2.60;;
79047;SDS011;68680;50.764;6.120;2023-12-28T01:12:44;4.45;;;3.08;;
79047;SDS011;68680;50.764;6.120;2023-12-28T01:15:09;5.18;;;2.88;;
79047;SDS011;68680;50.764;6.120;2023-12-28T01:17:35;3.85;;;3.33;;
79047;SDS011;68680;50.764;6.120;2023-12-28T01:20:02;3.70;;;3.30;;
79047;SDS011;68680;50.764;6.120;2023-12-28T01:22:28;4.28;;;3.35;;
79047;SDS011;68680;50.764;6.120;2023-12-28T01:24:54;5.68;;;3.05;;
79047;SDS011;68680;50.764;6.120;2023-12-28T01:27:19;5.40;;;3.35;;
79047;SDS011;68680;50.764;6.120;2023-12-28T01:29:45;5.90;;;3.40;;
79047;SDS011;68680;50.764;6.120;2023-12-28T01:32:11;4.47;;;3.45;;
79047;SDS011;68680;50.764;6.120;2023-12-28T01:34:36;4.00;;;3.08;;
79047;SDS011;68680;50.764;6.120;2023-12-28T01:37:03;4.60;;;3.17;;
79047;SDS011;68680;50.764;6.120;2023-12-28T01:39:29;6.30;;;3.58;;
79047;SDS011;68680;50.764;6.120;2023-12-28T01:41:54;4.35;;;3.70;;
79047;SDS011;68680;50.764;6.120;2023-12-28T01:44:20;4.32;;;3.53;;
79047;SDS011;68680;50.764;6.120;2023-12-28T01:46:46;6.18;;;3.53;;
79047;SDS011;68680;50.764;6.120;2023-12-28T01:49:11;3.67;;;3.17;;
79047;SDS011;68680;50.764;6.120;2023-12-28T01:51:37;4.90;;;3.00;;
79047;SDS011;68680;50.764;6.120;2023-12-28T01:54:05;7.95;;;4.85;;
79047;SDS011;68680;50.764;6.120;2023-12-28T01:56:31;5.65;;;3.30;;
79047;SDS011;68680;50.764;6.120;2023-12-28T01:58:57;3.72;;;3.28;;
79047;SDS011;68680;50.764;6.120;2023-12-28T02:01:22;4.75;;;4.00;;
79047;SDS011;68680;50.764;6.120;2023-12-28T02:03:48;5.45;;;3.40;;
79047;SDS011;68680;50.764;6.120;2023-12-28T02:06:14;5.78;;;3.38;;
79047;SDS011;68680;50.764;6.120;2023-12-28T02:08:40;6.35;;;3.47;;
79047;SDS011;68680;50.764;6.120;2023-12-28T02:11:07;6.32;;;3.78;;
79047;SDS011;68680;50.764;6.120;2023-12-28T02:13:33;5.00;;;3.65;;
79047;SDS011;68680;50.764;6.120;2023-12-28T02:16:00;7.40;;;3.78;;
79047;SDS011;68680;50.764;6.120;2023-12-28T02:18:33;5.53;;;3.10;;
79047;SDS011;68680;50.764;6.120;2023-12-28T02:21:03;6.50;;;3.10;;
79047;SDS011;68680;50.764;6.120;2023-12-28T02:23:31;5.95;;;3.30;;
79047;SDS011;68680;50.764;6.120;2023-12-28T02:25:58;4.30;;;3.22;;
79047;SDS011;68680;50.764;6.120;2023-12-28T02:28:24;3.88;;;3.47;;
79047;SDS011;68680;50.764;6.120;2023-12-28T02:30:50;4.85;;;3.67;;
79047;SDS011;68680;50.764;6.120;2023-12-28T02:33:18;6.53;;;4.45;;
79047;SDS011;68680;50.764;6.120;2023-12-28T02:35:51;9.45;;;3.95;;
79047;SDS011;68680;50.764;6.120;2023-12-28T02:38:22;5.70;;;3.00;;
79047;SDS011;68680;50.764;6.120;2023-12-28T02:40:49;5.93;;;3.15;;
79047;SDS011;68680;50.764;6.120;2023-12-28T02:43:17;4.18;;;3.05;;
79047;SDS011;68680;50.764;6.120;2023-12-28T02:45:43;6.95;;;2.67;;
79047;SDS011;68680;50.764;6.120;2023-12-28T02:48:08;3.03;;;2.72;;
79047;SDS011;68680;50.764;6.120;2023-12-28T02:50:34;4.93;;;3.03;;
79047;SDS011;68680;50.764;6.120;2023-12-28T02:53:01;3.97;;;2.92;;
79047;SDS011;68680;50.764;6.120;2023-12-28T02:55:26;4.35;;;2.70;;
79047;SDS011;68680;50.764;6.120;2023-12-28T02:57:53;5.07;;;2.72;;
79047;SDS011;68680;50.764;6.120;2023-12-28T03:00:22;7.60;;;2.75;;
79047;SDS011;68680;50.764;6.120;2023-12-28T03:02:47;8.02;;;3.03;;
79047;SDS011;68680;50.764;6.120;2023-12-28T03:05:13;5.30;;;2.80;;
79047;SDS011;68680;50.764;6.120;2023-12-28T03:07:39;3.72;;;2.78;;
79047;SDS011;68680;50.764;6.120;2023-12-28T03:10:05;9.23;;;2.85;;
79047;SDS011;68680;50.764;6.120;2023-12-28T03:12:31;3.95;;;2.60;;
79047;SDS011;68680;50.764;6.120;2023-12-28T03:14:57;9.63;;;2.60;;
79047;SDS011;68680;50.764;6.120;2023-12-28T03:17:24;5.18;;;2.58;;
79047;SDS011;68680;50.764;6.120;2023-12-28T03:19:50;3.25;;;2.42;;
79047;SDS011;68680;50.764;6.120;2023-12-28T03:22:15;3.50;;;2.08;;
79047;SDS011;68680;50.764;6.120;2023-12-28T03:24:41;4.65;;;2.10;;
79047;SDS011;68680;50.764;6.120;2023-12-28T03:27:06;4.35;;;2.08;;
79047;SDS011;68680;50.764;6.120;2023-12-28T03:29:32;3.13;;;2.35;;
79047;SDS011;68680;50.764;6.120;2023-12-28T03:31:58;5.50;;;2.60;;
79047;SDS011;68680;50.764;6.120;2023-12-28T03:34:25;6.85;;;2.28;;
79047;SDS011;68680;50.764;6.120;2023-12-28T03:36:51;6.70;;;2.35;;
79047;SDS011;68680;50.764;6.120;2023-12-28T03:39:17;4.03;;;2.30;;
79047;SDS011;68680;50.764;6.120;2023-12-28T03:41:42;8.07;;;2.08;;
79047;SDS011;68680;50.764;6.120;2023-12-28T03:44:08;5.22;;;2.47;;
79047;SDS011;68680;50.764;6.120;2023-12-28T03:46:33;9.05;;;2.97;;
79047;SDS011;68680;50.764;6.120;2023-12-28T03:48:59;5.45;;;2.28;;
79047;SDS011;68680;50.764;6.120;2023-12-28T03:51:26;3.30;;;2.38;;
79047;SDS011;68680;50.764;6.120;2023-12-28T03:53:52;7.38;;;2.28;;
79047;SDS011;68680;50.764;6.120;2023-12-28T03:56:18;5.82;;;2.20;;
79047;SDS011;68680;50.764;6.120;2023-12-28T03:58:45;5.05;;;2.20;;
79047;SDS011;68680;50.764;6.120;2023-12-28T04:01:10;6.07;;;2.47;;
79047;SDS011;68680;50.764;6.120;2023-12-28T04:03:36;2.85;;;2.40;;
79047;SDS011;68680;50.764;6.120;2023-12-28T04:06:01;4.72;;;1.70;;
79047;SDS011;68680;50.764;6.120;2023-12-28T04:08:29;6.22;;;2.10;;
79047;SDS011;68680;50.764;6.120;2023-12-28T04:10:54;4.28;;;2.00;;
79047;SDS011;68680;50.764;6.120;2023-12-28T04:13:20;6.55;;;2.10;;
79047;SDS011;68680;50.764;6.120;2023-12-28T04:15:45;4.50;;;2.08;;
79047;SDS011;68680;50.764;6.120;2023-12-28T04:18:11;4.20;;;1.95;;
79047;SDS011;68680;50.764;6.120;2023-12-28T04:20:36;8.30;;;2.58;;
79047;SDS011;68680;50.764;6.120;2023-12-28T04:23:02;3.88;;;1.83;;
79047;SDS011;68680;50.764;6.120;2023-12-28T04:25:29;4.20;;;2.05;;
79047;SDS011;68680;50.764;6.120;2023-12-28T04:27:55;3.90;;;2.13;;
79047;SDS011;68680;50.764;6.120;2023-12-28T04:30:20;5.03;;;2.40;;
79047;SDS011;68680;50.764;6.120;2023-12-28T04:32:46;5.05;;;2.28;;
79047;SDS011;68680;50.764;6.120;2023-12-28T04:35:12;6.72;;;2.40;;
79047;SDS011;68680;50.764;6.120;2023-12-28T04:37:38;7.20;;;2.42;;
79047;SDS011;68680;50.764;6.120;2023-12-28T04:40:04;3.95;;;2.30;;
79047;SDS011;68680;50.764;6.120;2023-12-28T04:42:31;4.07;;;2.10;;
79047;SDS011;68680;50.764;6.120;2023-12-28T04:44:57;4.60;;;2.00;;
79047;SDS011;68680;50.764;6.120;2023-12-28T04:47:22;4.70;;;2.20;;
79047;SDS011;68680;50.764;6.120;2023-12-28T04:49:48;2.75;;;2.10;;
79047;SDS011;68680;50.764;6.120;2023-12-28T04:52:13;5.18;;;2.17;;
79047;SDS011;68680;50.764;6.120;2023-12-28T04:54:39;6.60;;;2.28;;
79047;SDS011;68680;50.764;6.120;2023-12-28T04:57:05;4.57;;;1.90;;
79047;SDS011;68680;50.764;6.120;2023-12-28T04:59:32;4.82;;;2.50;;
79047;SDS011;68680;50.764;6.120;2023-12-28T05:01:58;5.13;;;2.42;;
79047;SDS011;68680;50.764;6.120;2023-12-28T05:04:23;6.03;;;2.33;;
79047;SDS011;68680;50.764;6.120;2023-12-28T05:06:49;6.00;;;2.10;;
79047;SDS011;68680;50.764;6.120;2023-12-28T05:09:14;4.65;;;2.38;;
79047;SDS011;68680;50.764;6.120;2023-12-28T05:11:40;8.00;;;2.10;;
79047;SDS011;68680;50.764;6.120;2023-12-28T05:14:05;5.53;;;3.25;;
79047;SDS011;68680;50.764;6.120;2023-12-28T05:16:32;5.90;;;2.25;;
79047;SDS011;68680;50.764;6.120;2023-12-28T05:18:58;3.58;;;2.00;;
79047;SDS011;68680;50.764;6.120;2023-12-28T05:21:23;6.57;;;2.70;;
79047;SDS011;68680;50.764;6.120;2023-12-28T05:23:49;4.22;;;2.45;;
79047;SDS011;68680;50.764;6.120;2023-12-28T05:26:15;7.47;;;2.45;;
79047;SDS011;68680;50.764;6.120;2023-12-28T05:28:40;5.20;;;2.10;;
79047;SDS011;68680;50.764;6.120;2023-12-28T05:31:06;6.28;;;2.20;;
79047;SDS011;68680;50.764;6.120;2023-12-28T05:33:33;8.52;;;2.28;;
79047;SDS011;68680;50.764;6.120;2023-12-28T05:35:58;2.53;;;1.70;;
79047;SDS011;68680;50.764;6.120;2023-12-28T05:38:24;7.38;;;1.63;;
79047;SDS011;68680;50.764;6.120;2023-12-28T05:40:49;7.57;;;2.47;;
79047;SDS011;68680;50.764;6.120;2023-12-28T05:43:15;6.47;;;1.85;;
79047;SDS011;68680;50.764;6.120;2023-12-28T05:45:41;10.35;;;2.33;;
79047;SDS011;68680;50.764;6.120;2023-12-28T05:48:06;5.18;;;2.15;;
79047;SDS011;68680;50.764;6.120;2023-12-28T05:50:33;10.13;;;1.65;;
79047;SDS011;68680;50.764;6.120;2023-12-28T05:52:59;2.88;;;1.90;;
79047;SDS011;68680;50.764;6.120;2023-12-28T05:55:24;5.82;;;1.77;;
79047;SDS011;68680;50.764;6.120;2023-12-28T05:57:50;6.57;;;2.50;;
79047;SDS011;68680;50.764;6.120;2023-12-28T06:00:16;10.57;;;1.95;;
79047;SDS011;68680;50.764;6.120;2023-12-28T06:02:41;7.43;;;2.72;;
79047;SDS011;68680;50.764;6.120;2023-12-28T06:05:07;5.05;;;1.60;;
79047;SDS011;68680;50.764;6.120;2023-12-28T06:07:34;4.35;;;1.77;;
79047;SDS011;68680;50.764;6.120;2023-12-28T06:10:00;5.60;;;2.95;;
79047;SDS011;68680;50.764;6.120;2023-12-28T06:12:25;3.50;;;2.50;;
79047;SDS011;68680;50.764;6.120;2023-12-28T06:14:51;5.57;;;2.00;;
79047;SDS011;68680;50.764;6.120;2023-12-28T06:17:16;4.55;;;1.60;;
79047;SDS011;68680;50.764;6.120;2023-12-28T06:19:42;5.05;;;1.95;;
79047;SDS011;68680;50.764;6.120;2023-12-28T06:22:08;7.88;;;1.70;;
79047;SDS011;68680;50.764;6.120;2023-12-28T06:24:38;3.75;;;1.77;;
79047;SDS011;68680;50.764;6.120;2023-12-28T06:27:04;4.55;;;1.88;;
79047;SDS011;68680;50.764;6.120;2023-12-28T06:29:29;3.88;;;1.90;;
79047;SDS011;68680;50.764;6.120;2023-12-28T06:31:55;5.32;;;1.83;;
79047;SDS011;68680;50.764;6.120;2023-12-28T06:34:21;4.40;;;2.42;;
79047;SDS011;68680;50.764;6.120;2023-12-28T06:36:46;3.75;;;1.98;;
79047;SDS011;68680;50.764;6.120;2023-12-28T06:39:12;4.60;;;2.40;;
79047;SDS011;68680;50.764;6.120;2023-12-28T06:41:39;5.70;;;1.80;;
79047;SDS011;68680;50.764;6.120;2023-12-28T06:44:04;6.20;;;1.83;;
79047;SDS011;68680;50.764;6.120;2023-12-28T06:46:30;9.80;;;2.42;;
79047;SDS011;68680;50.764;6.120;2023-12-28T06:48:56;5.05;;;2.20;;
79047;SDS011;68680;50.764;6.120;2023-12-28T06:51:21;10.02;;;2.00;;
79047;SDS011;68680;50.764;6.120;2023-12-28T06:53:47;5.20;;;1.75;;
79047;SDS011;68680;50.764;6.120;2023-12-28T06:56:13;3.50;;;1.60;;
79047;SDS011;68680;50.764;6.120;2023-12-28T06:58:40;4.07;;;1.85;;
79047;SDS011;68680;50.764;6.120;2023-12-28T07:01:06;6.05;;;1.58;;
79047;SDS011;68680;50.764;6.120;2023-12-28T07:03:32;9.80;;;1.95;;
79047;SDS011;68680;50.764;6.120;2023-12-28T07:05:58;5.60;;;1.73;;
79047;SDS011;68680;50.764;6.120;2023-12-28T07:08:23;8.27;;;2.22;;
79047;SDS011;68680;50.764;6.120;2023-12-28T07:10:49;10.15;;;2.10;;
79047;SDS011;68680;50.764;6.120;2023-12-28T07:13:14;4.95;;;1.90;;
79047;SDS011;68680;50.764;6.120;2023-12-28T07:15:41;7.40;;;1.85;;
79047;SDS011;68680;50.764;6.120;2023-12-28T07:18:07;6.60;;;1.75;;
79047;SDS011;68680;50.764;6.120;2023-12-28T07:20:33;5.45;;;1.95;;
79047;SDS011;68680;50.764;6.120;2023-12-28T07:22:58;7.88;;;2.17;;
79047;SDS011;68680;50.764;6.120;2023-12-28T07:25:24;11.05;;;2.63;;
79047;SDS011;68680;50.764;6.120;2023-12-28T07:27:49;6.90;;;1.92;;
79047;SDS011;68680;50.764;6.120;2023-12-28T07:30:15;9.77;;;1.90;;
79047;SDS011;68680;50.764;6.120;2023-12-28T07:32:42;12.93;;;2.50;;
79047;SDS011;68680;50.764;6.120;2023-12-28T07:35:08;8.75;;;1.60;;
79047;SDS011;68680;50.764;6.120;2023-12-28T07:37:34;6.13;;;2.00;;
79047;SDS011;68680;50.764;6.120;2023-12-28T07:40:00;6.22;;;1.73;;
79047;SDS011;68680;50.764;6.120;2023-12-28T07:42:26;8.60;;;1.83;;
79047;SDS011;68680;50.764;6.120;2023-12-28T07:44:51;10.63;;;2.20;;
79047;SDS011;68680;50.764;6.120;2023-12-28T07:47:17;9.73;;;2.28;;
79047;SDS011;68680;50.764;6.120;2023-12-28T07:49:44;7.63;;;2.10;;
79047;SDS011;68680;50.764;6.120;2023-12-28T07:52:09;8.07;;;1.60;;
79047;SDS011;68680;50.764;6.120;2023-12-28T07:54:35;6.35;;;2.45;;
79047;SDS011;68680;50.764;6.120;2023-12-28T07:57:01;7.63;;;1.88;;
79047;SDS011;68680;50.764;6.120;2023-12-28T07:59:26;10.27;;;2.08;;
79047;SDS011;68680;50.764;6.120;2023-12-28T08:01:52;9.48;;;2.00;;
79047;SDS011;68680;50.764;6.120;2023-12-28T08:04:17;9.27;;;1.88;;
79047;SDS011;68680;50.764;6.120;2023-12-28T08:06:44;7.22;;;1.80;;
79047;SDS011;68680;50.764;6.120;2023-12-28T08:09:10;9.82;;;1.75;;
79047;SDS011;68680;50.764;6.120;2023-12-28T08:11:36;7.95;;;2.00;;
79047;SDS011;68680;50.764;6.120;2023-12-28T08:14:01;11.05;;;1.80;;
79047;SDS011;68680;50.764;6.120;2023-12-28T08:16:27;8.55;;;1.98;;
79047;SDS011;68680;50.764;6.120;2023-12-28T08:18:52;15.20;;;2.97;;
79047;SDS011;68680;50.764;6.120;2023-12-28T08:21:18;9.80;;;2.00;;
79047;SDS011;68680;50.764;6.120;2023-12-28T08:23:45;4.88;;;1.95;;
79047;SDS011;68680;50.764;6.120;2023-12-28T08:26:10;9.98;;;2.10;;
79047;SDS011;68680;50.764;6.120;2023-12-28T08:28:36;9.40;;;2.53;;
79047;SDS011;68680;50.764;6.120;2023-12-28T08:31:02;7.25;;;1.83;;
79047;SDS011;68680;50.764;6.120;2023-12-28T08:33:28;4.80;;;1.88;;
79047;SDS011;68680;50.764;6.120;2023-12-28T08:35:53;10.80;;;2.00;;
79047;SDS011;68680;50.764;6.120;2023-12-28T08:38:19;8.23;;;2.25;;
79047;SDS011;68680;50.764;6.120;2023-12-28T08:40:46;10.60;;;2.28;;
79047;SDS011;68680;50.764;6.120;2023-12-28T08:43:11;8.15;;;2.03;;
79047;SDS011;68680;50.764;6.120;2023-12-28T08:45:37;8.85;;;1.85;;
79047;SDS011;68680;50.764;6.120;2023-12-28T08:48:03;7.13;;;1.80;;
79047;SDS011;68680;50.764;6.120;2023-12-28T08:50:29;11.20;;;2.00;;
79047;SDS011;68680;50.764;6.120;2023-12-28T08:52:55;9.00;;;2.33;;
79047;SDS011;68680;50.764;6.120;2023-12-28T08:55:20;10.35;;;2.00;;
79047;SDS011;68680;50.764;6.120;2023-12-28T08:57:47;11.50;;;2.42;;
79047;SDS011;68680;50.764;6.120;2023-12-28T09:00:13;13.35;;;2.40;;
79047;SDS011;68680;50.764;6.120;2023-12-28T09:02:39;9.85;;;1.85;;
79047;SDS011;68680;50.764;6.120;2023-12-28T09:05:05;10.77;;;2.83;;
79047;SDS011;68680;50.764;6.120;2023-12-28T09:07:31;5.85;;;2.28;;
79047;SDS011;68680;50.764;6.120;2023-12-28T09:09:57;8.60;;;1.85;;
79047;SDS011;68680;50.764;6.120;2023-12-28T09:12:22;7.63;;;1.48;;
79047;SDS011;68680;50.764;6.120;2023-12-28T09:14:49;11.10;;;2.90;;
79047;SDS011;68680;50.764;6.120;2023-12-28T09:17:15;10.15;;;1.65;;
79047;SDS011;68680;50.764;6.120;2023-12-28T09:19:40;7.32;;;1.90;;
79047;SDS011;68680;50.764;6.120;2023-12-28T09:22:06;8.52;;;1.88;;
79047;SDS011;68680;50.764;6.120;2023-12-28T09:24:31;7.70;;;1.40;;
79047;SDS011;68680;50.764;6.120;2023-12-28T09:26:57;7.60;;;1.63;;
79047;SDS011;68680;50.764;6.120;2023-12-28T09:29:23;13.02;;;2.30;;
79047;SDS011;68680;50.764;6.120;2023-12-28T09:31:50;10.18;;;3.10;;
79047;SDS011;68680;50.764;6.120;2023-12-28T09:34:15;9.38;;;2.42;;
79047;SDS011;68680;50.764;6.120;2023-12-28T09:36:41;5.10;;;2.55;;
79047;SDS011;68680;50.764;6.120;2023-12-28T09:39:06;9.52;;;2.08;;
79047;SDS011;68680;50.764;6.120;2023-12-28T09:41:32;11.18;;;1.65;;
79047;SDS011;68680;50.764;6.120;2023-12-28T09:44:08;9.70;;;1.65;;
79047;SDS011;68680;50.764;6.120;2023-12-28T09:46:37;12.02;;;1.85;;
79047;SDS011;68680;50.764;6.120;2023-12-28T09:49:07;7.30;;;1.67;;
79047;SDS011;68680;50.764;6.120;2023-12-28T09:51:33;11.95;;;2.35;;
79047;SDS011;68680;50.764;6.120;2023-12-28T09:53:58;7.68;;;1.40;;
79047;SDS011;68680;50.764;6.120;2023-12-28T09:56:24;7.95;;;1.75;;
79047;SDS011;68680;50.764;6.120;2023-12-28T09:58:50;8.35;;;1.58;;
79047;SDS011;68680;50.764;6.120;2023-12-28T10:01:16;10.65;;;1.70;;
79047;SDS011;68680;50.764;6.120;2023-12-28T10:03:43;12.77;;;2.28;;
79047;SDS011;68680;50.764;6.120;2023-12-28T10:06:10;9.02;;;1.85;;
79047;SDS011;68680;50.764;6.120;2023-12-28T10:08:35;7.05;;;1.75;;
79047;SDS011;68680;50.764;6.120;2023-12-28T10:11:02;8.80;;;2.00;;
79047;SDS011;68680;50.764;6.120;2023-12-28T10:13:28;7.75;;;1.90;;
79047;SDS011;68680;50.764;6.120;2023-12-28T10:15:56;10.88;;;2.10;;
79047;SDS011;68680;50.764;6.120;2023-12-28T10:18:22;9.32;;;2.40;;
79047;SDS011;68680;50.764;6.120;2023-12-28T10:20:49;12.13;;;1.90;;
79047;SDS011;68680;50.764;6.120;2023-12-28T10:23:16;7.15;;;1.63;;
79047;SDS011;68680;50.764;6.120;2023-12-28T10:25:42;16.38;;;2.20;;
79047;SDS011;68680;50.764;6.120;2023-12-28T10:28:07;7.47;;;1.92;;
79047;SDS011;68680;50.764;6.120;2023-12-28T10:30:34;6.53;;;1.73;;
79047;SDS011;68680;50.764;6.120;2023-12-28T10:33:00;8.80;;;2.00;;
79047;SDS011;68680;50.764;6.120;2023-12-28T10:35:26;4.38;;;1.38;;
79047;SDS011;68680;50.764;6.120;2023-12-28T10:37:51;7.20;;;1.15;;
79047;SDS011;68680;50.764;6.120;2023-12-28T10:40:19;8.90;;;2.05;;
79047;SDS011;68680;50.764;6.120;2023-12-28T10:42:49;8.55;;;2.42;;
79047;SDS011;68680;50.764;6.120;2023-12-28T10:45:17;8.80;;;1.77;;
79047;SDS011;68680;50.764;6.120;2023-12-28T10:47:44;10.88;;;1.65;;
79047;SDS011;68680;50.764;6.120;2023-12-28T10:52:41;5.70;;;1.40;;
79047;SDS011;68680;50.764;6.120;2023-12-28T10:55:16;10.95;;;1.95;;
79047;SDS011;68680;50.764;6.120;2023-12-28T10:58:09;12.98;;;2.05;;
79047;SDS011;68680;50.764;6.120;2023-12-28T11:00:36;11.93;;;2.17;;
79047;SDS011;68680;50.764;6.120;2023-12-28T11:03:09;9.85;;;1.88;;
79047;SDS011;68680;50.764;6.120;2023-12-28T11:05:36;6.10;;;1.55;;
79047;SDS011;68680;50.764;6.120;2023-12-28T11:08:05;9.07;;;2.20;;
79047;SDS011;68680;50.764;6.120;2023-12-28T11:10:34;10.32;;;1.85;;
79047;SDS011;68680;50.764;6.120;2023-12-28T11:13:01;9.15;;;1.58;;
79047;SDS011;68680;50.764;6.120;2023-12-28T11:15:37;13.10;;;1.98;;
79047;SDS011;68680;50.764;6.120;2023-12-28T11:18:04;5.07;;;1.60;;
79047;SDS011;68680;50.764;6.120;2023-12-28T11:20:29;7.57;;;1.42;;
79047;SDS011;68680;50.764;6.120;2023-12-28T11:22:56;7.07;;;1.60;;
79047;SDS011;68680;50.764;6.120;2023-12-28T11:25:22;6.32;;;1.42;;
79047;SDS011;68680;50.764;6.120;2023-12-28T11:27:49;8.90;;;2.10;;
79047;SDS011;68680;50.764;6.120;2023-12-28T11:30:15;10.43;;;1.95;;
79047;SDS011;68680;50.764;6.120;2023-12-28T11:32:40;12.55;;;1.98;;
79047;SDS011;68680;50.764;6.120;2023-12-28T11:35:07;11.38;;;1.40;;
79047;SDS011;68680;50.764;6.120;2023-12-28T11:37:32;14.30;;;2.42;;
79047;SDS011;68680;50.764;6.120;2023-12-28T11:39:59;7.22;;;1.95;;
79047;SDS011;68680;50.764;6.120;2023-12-28T11:42:35;8.80;;;1.48;;
79047;SDS011;68680;50.764;6.120;2023-12-28T11:45:02;9.18;;;1.42;;
79047;SDS011;68680;50.764;6.120;2023-12-28T11:47:30;16.00;;;2.10;;
79047;SDS011;68680;50.764;6.120;2023-12-28T11:50:05;10.60;;;1.58;;
79047;SDS011;68680;50.764;6.120;2023-12-28T11:52:31;5.95;;;1.17;;
79047;SDS011;68680;50.764;6.120;2023-12-28T11:54:57;10.15;;;1.92;;
79047;SDS011;68680;50.764;6.120;2023-12-28T11:57:24;7.43;;;2.53;;
79047;SDS011;68680;50.764;6.120;2023-12-28T11:59:53;9.60;;;1.88;;
79047;SDS011;68680;50.764;6.120;2023-12-28T12:02:22;5.75;;;1.70;;
79047;SDS011;68680;50.764;6.120;2023-12-28T12:04:47;10.95;;;1.42;;
79047;SDS011;68680;50.764;6.120;2023-12-28T12:07:13;13.45;;;1.90;;
79047;SDS011;68680;50.764;6.120;2023-12-28T12:09:39;9.43;;;1.45;;
79047;SDS011;68680;50.764;6.120;2023-12-28T12:12:06;5.93;;;1.50;;
79047;SDS011;68680;50.764;6.120;2023-12-28T12:14:32;6.70;;;1.45;;
79047;SDS011;68680;50.764;6.120;2023-12-28T12:16:59;6.10;;;0.90;;
79047;SDS011;68680;50.764;6.120;2023-12-28T12:19:26;11.80;;;1.58;;
79047;SDS011;68680;50.764;6.120;2023-12-28T12:21:52;9.20;;;1.88;;
79047;SDS011;68680;50.764;6.120;2023-12-28T12:24:18;6.15;;;1.85;;
79047;SDS011;68680;50.764;6.120;2023-12-28T12:26:45;9.13;;;1.98;;
79047;SDS011;68680;50.764;6.120;2023-12-28T12:29:10;8.00;;;1.40;;
79047;SDS011;68680;50.764;6.120;2023-12-28T12:31:36;8.50;;;1.52;;
79047;SDS011;68680;50.764;6.120;2023-12-28T12:34:03;6.15;;;1.80;;
79047;SDS011;68680;50.764;6.120;2023-12-28T12:36:30;6.60;;;1.83;;
79047;SDS011;68680;50.764;6.120;2023-12-28T12:38:56;7.65;;;2.55;;
79047;SDS011;68680;50.764;6.120;2023-12-28T12:41:22;12.55;;;2.15;;
79047;SDS011;68680;50.764;6.120;2023-12-28T12:43:47;8.43;;;1.30;;
79047;SDS011;68680;50.764;6.120;2023-12-28T12:46:13;8.20;;;1.35;;
79047;SDS011;68680;50.764;6.120;2023-12-28T12:48:39;6.65;;;1.40;;
79047;SDS011;68680;50.764;6.120;2023-12-28T12:51:05;11.75;;;1.38;;
79047;SDS011;68680;50.764;6.120;2023-12-28T12:53:34;9.70;;;2.00;;
79047;SDS011;68680;50.764;6.120;2023-12-28T12:56:00;5.90;;;1.40;;
79047;SDS011;68680;50.764;6.120;2023-12-28T12:58:27;7.10;;;2.47;;
79047;SDS011;68680;50.764;6.120;2023-12-28T13:00:53;5.95;;;2.30;;
79047;SDS011;68680;50.764;6.120;2023-12-28T13:03:19;8.98;;;1.77;;
79047;SDS011;68680;50.764;6.120;2023-12-28T13:05:45;6.05;;;1.42;;
79047;SDS011;68680;50.764;6.120;2023-12-28T13:08:10;12.63;;;1.60;;
79047;SDS011;68680;50.764;6.120;2023-12-28T13:10:37;5.45;;;1.10;;
79047;SDS011;68680;50.764;6.120;2023-12-28T13:13:06;6.50;;;1.15;;
79047;SDS011;68680;50.764;6.120;2023-12-28T13:15:32;9.90;;;2.00;;
79047;SDS011;68680;50.764;6.120;2023-12-28T13:17:57;8.27;;;1.40;;
79047;SDS011;68680;50.764;6.120;2023-12-28T13:20:23;6.82;;;1.08;;
79047;SDS011;68680;50.764;6.120;2023-12-28T13:22:48;8.23;;;1.40;;
79047;SDS011;68680;50.764;6.120;2023-12-28T13:25:14;9.45;;;1.88;;
79047;SDS011;68680;50.764;6.120;2023-12-28T13:27:42;9.82;;;2.28;;
79047;SDS011;68680;50.764;6.120;2023-12-28T13:30:08;7.45;;;1.52;;
79047;SDS011;68680;50.764;6.120;2023-12-28T13:32:34;10.68;;;3.47;;
79047;SDS011;68680;50.764;6.120;2023-12-28T13:35:00;11.23;;;1.77;;
79047;SDS011;68680;50.764;6.120;2023-12-28T13:37:25;11.48;;;2.03;;
79047;SDS011;68680;50.764;6.120;2023-12-28T13:39:51;6.72;;;1.60;;
79047;SDS011;68680;50.764;6.120;2023-12-28T13:42:16;23.48;;;3.30;;
79047;SDS011;68680;50.764;6.120;2023-12-28T13:44:43;7.70;;;2.10;;
79047;SDS011;68680;50.764;6.120;2023-12-28T13:47:09;9.70;;;2.38;;
79047;SDS011;68680;50.764;6.120;2023-12-28T13:49:34;7.07;;;1.65;;
79047;SDS011;68680;50.764;6.120;2023-12-28T13:52:00;8.68;;;1.77;;
79047;SDS011;68680;50.764;6.120;2023-12-28T13:54:26;11.02;;;1.63;;
79047;SDS011;68680;50.764;6.120;2023-12-28T13:56:51;6.28;;;1.98;;
79047;SDS011;68680;50.764;6.120;2023-12-28T13:59:17;10.90;;;1.52;;
79047;SDS011;68680;50.764;6.120;2023-12-28T14:01:44;9.77;;;2.00;;
79047;SDS011;68680;50.764;6.120;2023-12-28T14:04:10;7.78;;;1.77;;
79047;SDS011;68680;50.764;6.120;2023-12-28T14:06:35;8.40;;;1.42;;
79047;SDS011;68680;50.764;6.120;2023-12-28T14:09:01;7.22;;;1.45;;
79047;SDS011;68680;50.764;6.120;2023-12-28T14:11:27;8.93;;;1.58;;
79047;SDS011;68680;50.764;6.120;2023-12-28T14:13:52;6.93;;;1.60;;
79047;SDS011;68680;50.764;6.120;2023-12-28T14:16:18;7.22;;;1.45;;
79047;SDS011;68680;50.764;6.120;2023-12-28T14:18:45;4.95;;;1.58;;
79047;SDS011;68680;50.764;6.120;2023-12-28T14:21:11;4.63;;;1.38;;
79047;SDS011;68680;50.764;6.120;2023-12-28T14:23:36;5.72;;;1.17;;
79047;SDS011;68680;50.764;6.120;2023-12-28T14:26:07;5.22;;;1.63;;
79047;SDS011;68680;50.764;6.120;2023-12-28T14:28:39;6.53;;;1.05;;
79047;SDS011;68680;50.764;6.120;2023-12-28T14:31:06;10.48;;;1.63;;
79047;SDS011;68680;50.764;6.120;2023-12-28T14:33:32;6.30;;;1.50;;
79047;SDS011;68680;50.764;6.120;2023-12-28T14:35:59;14.95;;;2.20;;
79047;SDS011;68680;50.764;6.120;2023-12-28T14:38:26;4.20;;;1.35;;
79047;SDS011;68680;50.764;6.120;2023-12-28T14:40:51;13.48;;;1.40;;
79047;SDS011;68680;50.764;6.120;2023-12-28T14:43:17;11.60;;;1.85;;